Time;durP1;ratioP1;P1;durP2;ratioP2;P2;SDS_P1;SDS_P2;PMS_P1;PMS_P2;Temp;Humidity;BMP_temperature;BMP_pressure;BME280_temperature;BME280_humidity;BME280_pressure;Samples;Min_cycle;Max_cycle;Signal;HPM_P1;HPM_P2
2022/07/10 00:01:33;;;;;;;;;;;;;;;13.56;68.17;98889.35;1480371;80;20578;-79
2022/07/10 00:03:34;;;;;;;;;;;;;;;13.58;68.24;98894.55;1480200;80;20154;-80
2022/07/10 00:05:35;;;;;;;;;;;;;;;13.59;68.20;98890.48;1480134;80;20125;-80
2022/07/10 00:07:36;;;;;;;;;;;;;;;13.60;68.21;98891.34;1480068;79;20260;-80
2022/07/10 00:09:37;;;;;;;;;;;;;;;13.61;68.27;98883.79;1479903;79;20120;-80
2022/07/10 00:11:37;;;;;;;;;;;;;;;13.61;68.25;98885.11;1481241;80;20232;-80
2022/07/10 00:13:38;;;;;;;;;;;;;;;13.60;68.30;98882.08;1468128;79;20279;-80
2022/07/10 00:15:39;;;;;;;;;;;;;;;13.61;68.30;98882.47;1479973;80;20110;-80
2022/07/10 00:17:40;;;;;;;;;;;;;;;13.60;68.35;98878.11;1463620;81;20151;-81
2022/07/10 00:19:41;;;;;;;;;;;;;;;13.60;68.38;98882.08;1482197;80;20431;-80
2022/07/10 00:21:42;;;;;;;;;;;;;;;13.58;68.42;98876.88;1478741;80;20161;-80
2022/07/10 00:23:43;;;;;;;;;;;;;;;13.57;68.46;98874.34;1478564;79;20134;-79
2022/07/10 00:25:43;;;;;;;;;;;;;;;13.54;68.51;98870.53;1468556;80;20199;-80
2022/07/10 00:27:44;;;;;;;;;;;;;;;13.52;68.59;98867.14;1480967;80;20165;-79
2022/07/10 00:29:45;;;;;;;;;;;;;;;13.49;68.68;98873.95;1480542;80;20220;-78
2022/07/10 00:31:46;;;;;;;;;;;;;;;13.46;68.76;98871.02;1479875;80;20168;-78
2022/07/10 00:33:47;;;;;;;;;;;;;;;13.43;68.79;98865.89;1474775;80;20185;-80
2022/07/10 00:35:48;;;;;;;;;;;;;;;13.41;68.88;98864.67;1478755;79;20137;-78
2022/07/10 00:37:49;;;;;;;;;;;;;;;13.41;68.93;98865.16;1478736;80;20810;-79
2022/07/10 00:39:53;;;;;;;;;;;;;;;13.39;68.97;98859.95;1465459;80;20733;-78
2022/07/10 00:41:53;;;;;;;;;;;;;;;13.39;68.99;98856.47;1480005;79;20177;-79
2022/07/10 00:43:56;;;;;;;;;;;;;;;13.38;69.07;98855.59;1481831;79;20421;-79
2022/07/10 00:45:58;;;;;;;;;;;;;;;13.38;69.03;98848.14;1480117;79;20115;-79
2022/07/10 00:48:00;;;;;;;;;;;;;;;13.37;69.09;98858.34;1466158;80;20128;-79
2022/07/10 00:50:01;;;;;;;;;;;;;;;13.35;69.12;98851.83;1480737;80;20177;-79
2022/07/10 00:52:03;;;;;;;;;;;;;;;13.36;69.19;98848.69;1481367;80;20141;-78
2022/07/10 00:54:05;;;;;;;;;;;;;;;13.36;69.22;98855.31;1479705;79;20160;-79
2022/07/10 00:56:06;;;;;;;;;;;;;;;13.37;69.26;98847.75;1480547;79;20153;-79
2022/07/10 00:58:08;;;;;;;;;;;;;;;13.37;69.26;98847.75;1481635;79;20142;-79
2022/07/10 01:00:11;;;;;;;;;;;;;;;13.38;69.30;98848.98;1480325;80;20145;-79
2022/07/10 01:02:12;;;;;;;;;;;;;;;13.36;69.33;98844.27;1481136;79;20137;-78
2022/07/10 01:04:13;;;;;;;;;;;;;;;13.36;69.30;98841.63;1480908;79;21111;-78
2022/07/10 01:06:15;;;;;;;;;;;;;;;13.37;69.34;98840.66;1478560;79;20141;-79
2022/07/10 01:08:15;;;;;;;;;;;;;;;13.36;69.35;98843.40;1481730;80;20686;-78
2022/07/10 01:10:16;;;;;;;;;;;;;;;13.34;69.40;98839.49;1481201;80;20132;-78
2022/07/10 01:12:17;;;;;;;;;;;;;;;13.32;69.42;98834.78;1480023;80;20098;-78
2022/07/10 01:14:19;;;;;;;;;;;;;;;13.32;69.51;98827.30;1480242;79;20169;-78
2022/07/10 01:16:22;;;;;;;;;;;;;;;13.28;69.54;98834.11;1481464;80;20153;-79
2022/07/10 01:18:22;;;;;;;;;;;;;;;13.27;69.60;98827.59;1480928;79;20122;-78
2022/07/10 01:20:27;;;;;;;;;;;;;;;13.26;69.62;98829.85;1480667;79;20476;-79
2022/07/10 01:22:29;;;;;;;;;;;;;;;13.24;69.67;98830.44;1480733;79;20508;-80
2022/07/10 01:24:29;;;;;;;;;;;;;;;13.21;69.75;98823.98;1480351;79;20124;-79
2022/07/10 01:26:30;;;;;;;;;;;;;;;13.19;69.77;98824.56;1480546;80;20402;-79
2022/07/10 01:28:31;;;;;;;;;;;;;;;13.18;69.78;98828.14;1481386;80;20236;-79
2022/07/10 01:30:32;;;;;;;;;;;;;;;13.17;69.82;98828.63;1479990;79;20156;-79
2022/07/10 01:32:36;;;;;;;;;;;;;;;13.14;69.90;98824.86;1480163;79;20500;-78
2022/07/10 01:34:39;;;;;;;;;;;;;;;13.15;69.92;98815.95;1480627;79;20469;-79
2022/07/10 01:36:41;;;;;;;;;;;;;;;13.16;69.99;98820.79;1480197;80;20130;-80
2022/07/10 01:38:42;;;;;;;;;;;;;;;13.14;70.04;98820.02;1481107;79;20492;-79
2022/07/10 01:40:42;;;;;;;;;;;;;;;13.10;70.11;98813.59;1480391;79;20185;-78
2022/07/10 01:42:43;;;;;;;;;;;;;;;13.07;70.12;98807.62;1481364;79;20130;-78
2022/07/10 01:44:44;;;;;;;;;;;;;;;13.03;70.13;98806.98;1481736;79;20145;-78
2022/07/10 01:46:45;;;;;;;;;;;;;;;13.00;70.19;98805.86;1481545;79;20507;-79
2022/07/10 01:48:46;;;;;;;;;;;;;;;12.96;70.20;98805.66;1482423;79;20121;-79
2022/07/10 01:50:47;;;;;;;;;;;;;;;12.94;70.26;98800.92;1480756;80;20159;-79
2022/07/10 01:52:48;;;;;;;;;;;;;;;12.91;70.32;98800.62;1480269;79;20157;-79
2022/07/10 01:54:49;;;;;;;;;;;;;;;12.88;70.40;98802.15;1481058;79;20137;-78
2022/07/10 01:56:49;;;;;;;;;;;;;;;12.86;70.46;98797.89;1478866;79;20235;-78
2022/07/10 01:58:50;;;;;;;;;;;;;;;12.84;70.46;98795.83;1478667;79;20175;-78
2022/07/10 02:00:51;;;;;;;;;;;;;;;12.80;70.55;98792.50;1481069;80;20133;-78
2022/07/10 02:05:11;;;;;;;;;;;;;;;12.75;70.61;98790.14;1479553;80;20182;-79
2022/07/10 02:07:12;;;;;;;;;;;;;;;12.72;70.65;98787.69;1481284;79;20193;-79
2022/07/10 02:09:14;;;;;;;;;;;;;;;12.69;70.71;98785.21;1468106;80;20313;-79
2022/07/10 02:11:15;;;;;;;;;;;;;;;12.67;70.78;98775.66;1477897;79;20577;-79
2022/07/10 02:13:19;;;;;;;;;;;;;;;12.65;70.83;98769.15;1477920;79;20130;-79
2022/07/10 02:15:19;;;;;;;;;;;;;;;12.63;70.91;98772.38;1480892;79;20477;-79
2022/07/10 02:17:19;;;;;;;;;;;;;;;12.63;71.00;98780.75;1481172;80;20258;-79
2022/07/10 02:19:20;;;;;;;;;;;;;;;12.62;71.10;98781.23;1482009;79;20551;-79
2022/07/10 02:21:21;;;;;;;;;;;;;;;12.63;71.19;98780.30;1481558;80;20137;-79
2022/07/10 02:23:22;;;;;;;;;;;;;;;12.64;71.29;98778.05;1480634;79;20141;-79
2022/07/10 02:25:23;;;;;;;;;;;;;;;12.65;71.33;98781.05;1479828;79;20261;-79
2022/07/10 02:27:23;;;;;;;;;;;;;;;12.69;71.36;98783.05;1478072;79;20184;-79
2022/07/10 02:29:24;;;;;;;;;;;;;;;12.70;71.37;98777.66;1481860;80;20146;-79
2022/07/10 02:31:25;;;;;;;;;;;;;;;12.72;71.40;98783.73;1480601;79;20133;-80
2022/07/10 02:33:26;;;;;;;;;;;;;;;12.73;71.47;98785.41;1479269;79;20199;-80
2022/07/10 02:35:27;;;;;;;;;;;;;;;12.75;71.46;98781.34;1480912;79;20149;-80
2022/07/10 02:37:28;;;;;;;;;;;;;;;12.76;71.49;98782.56;1481818;80;20137;-79
2022/07/10 02:39:29;;;;;;;;;;;;;;;12.75;71.52;98775.60;1480992;79;20393;-79
2022/07/10 02:41:30;;;;;;;;;;;;;;;12.76;71.58;98771.16;1481678;79;20182;-79
2022/07/10 02:43:31;;;;;;;;;;;;;;;12.77;71.60;98776.83;1481501;79;20138;-78
2022/07/10 02:45:32;;;;;;;;;;;;;;;12.77;71.68;98765.77;1482779;79;20535;-80
2022/07/10 02:47:33;;;;;;;;;;;;;;;12.80;71.71;98769.19;1482434;79;20154;-79
2022/07/10 02:49:33;;;;;;;;;;;;;;;12.82;71.77;98767.28;1481739;79;20141;-79
2022/07/10 02:51:34;;;;;;;;;;;;;;;12.83;71.78;98767.18;1481212;80;20169;-79
2022/07/10 02:53:35;;;;;;;;;;;;;;;12.87;71.83;98762.56;1481475;80;20131;-79
2022/07/10 02:55:36;;;;;;;;;;;;;;;12.86;71.84;98756.89;1481186;79;20472;-79
2022/07/10 02:57:36;;;;;;;;;;;;;;;12.88;71.83;98751.05;1481324;79;20177;-79
2022/07/10 02:59:39;;;;;;;;;;;;;;;12.88;71.88;98752.38;1482236;79;20153;-80
2022/07/10 03:01:42;;;;;;;;;;;;;;;12.88;71.89;98762.47;1481015;79;20169;-79
2022/07/10 03:03:43;;;;;;;;;;;;;;;12.88;71.88;98752.38;1482533;79;20461;-79
2022/07/10 03:05:44;;;;;;;;;;;;;;;12.90;71.90;98759.73;1479509;80;20285;-79
2022/07/10 03:07:45;;;;;;;;;;;;;;;12.90;71.96;98759.73;1480556;79;20126;-79
2022/07/10 03:09:46;;;;;;;;;;;;;;;12.91;72.01;98758.31;1481496;80;20215;-79
2022/07/10 03:11:47;;;;;;;;;;;;;;;12.94;72.07;98763.89;1480488;79;20151;-79
2022/07/10 03:13:48;;;;;;;;;;;;;;;12.95;72.11;98756.34;1480582;79;20153;-79
2022/07/10 03:15:49;;;;;;;;;;;;;;;12.97;72.11;98750.95;1481766;80;20158;-79
2022/07/10 03:17:49;;;;;;;;;;;;;;;12.97;72.10;98749.14;1481637;79;20122;-78
2022/07/10 03:19:50;;;;;;;;;;;;;;;12.98;72.14;98747.36;1482379;79;20229;-79
2022/07/10 03:21:51;;;;;;;;;;;;;;;12.97;72.12;98746.98;1482544;80;20510;-80
2022/07/10 03:23:52;;;;;;;;;;;;;;;12.98;72.17;98751.33;1480111;80;20134;-77
2022/07/10 03:25:53;;;;;;;;;;;;;;;13.00;72.23;98747.66;1480614;79;20148;-79
2022/07/10 03:27:54;;;;;;;;;;;;;;;13.01;72.29;98750.66;1483222;80;20253;-79
2022/07/10 03:29:55;;;;;;;;;;;;;;;13.04;72.30;98750.48;1480755;80;20106;-78
2022/07/10 03:31:55;;;;;;;;;;;;;;;13.05;72.32;98750.00;1466516;81;20136;-78
2022/07/10 03:33:56;;;;;;;;;;;;;;;13.06;72.33;98752.55;1481519;80;20153;-78
2022/07/10 03:35:57;;;;;;;;;;;;;;;13.07;72.39;98748.97;1481272;80;20142;-79
2022/07/10 03:38:00;;;;;;;;;;;;;;;13.10;72.43;98751.41;1480169;79;20372;-78
2022/07/10 03:40:00;;;;;;;;;;;;;;;13.13;72.48;98750.37;1483250;80;20095;-79
2022/07/10 03:42:01;;;;;;;;;;;;;;;13.17;72.49;98742.63;1486187;79;20217;-79
2022/07/10 03:44:02;;;;;;;;;;;;;;;13.21;72.52;98740.62;1482280;79;20193;-80
2022/07/10 03:46:03;;;;;;;;;;;;;;;13.23;72.53;98744.88;1485910;79;20150;-79
2022/07/10 03:48:04;;;;;;;;;;;;;;;13.26;72.55;98743.37;1483870;80;20104;-78
2022/07/10 03:50:05;;;;;;;;;;;;;;;13.29;72.55;98737.02;1485568;79;20102;-79
2022/07/10 03:52:06;;;;;;;;;;;;;;;13.32;72.63;98734.20;1486659;79;20138;-79
2022/07/10 03:54:07;;;;;;;;;;;;;;;13.33;72.62;98734.55;1473286;79;20140;-79
2022/07/10 03:56:08;;;;;;;;;;;;;;;13.38;72.62;98733.83;1485468;80;20192;-79
2022/07/10 03:58:08;;;;;;;;;;;;;;;13.40;72.63;98729.30;1486163;80;20134;-79
2022/07/10 04:00:10;;;;;;;;;;;;;;;13.43;72.63;98734.39;1485293;79;20110;-79
2022/07/10 04:02:11;;;;;;;;;;;;;;;13.44;72.68;98726.83;1482483;79;20082;-78
2022/07/10 04:04:11;;;;;;;;;;;;;;;13.45;72.71;98728.50;1484202;80;20126;-79
2022/07/10 04:06:12;;;;;;;;;;;;;;;13.49;72.72;98724.36;1485487;80;20168;-78
2022/07/10 04:08:13;;;;;;;;;;;;;;;13.50;72.77;98725.58;1484590;80;20106;-78
2022/07/10 04:10:14;;;;;;;;;;;;;;;13.53;72.79;98717.44;1484730;80;20099;-79
2022/07/10 04:12:14;;;;;;;;;;;;;;;13.56;72.86;98723.02;1486136;80;20161;-79
2022/07/10 04:14:15;;;;;;;;;;;;;;;13.56;72.86;98723.84;1484836;79;20162;-78
2022/07/10 04:16:16;;;;;;;;;;;;;;;13.58;72.90;98722.42;1484166;79;20138;-78
2022/07/10 04:18:17;;;;;;;;;;;;;;;13.62;72.93;98721.27;1472671;81;20113;-79
2022/07/10 04:20:18;;;;;;;;;;;;;;;13.67;72.96;98718.34;1478780;79;20128;-79
2022/07/10 04:22:19;;;;;;;;;;;;;;;13.71;73.00;98723.82;1484375;77;20173;-79
2022/07/10 04:24:20;;;;;;;;;;;;;;;13.74;72.97;98719.16;1509985;79;20145;-79
2022/07/10 04:26:20;;;;;;;;;;;;;;;13.79;72.99;98721.03;1480149;80;20120;-80
2022/07/10 04:28:21;;;;;;;;;;;;;;;13.84;73.01;98719.88;1481622;79;20195;-78
2022/07/10 04:30:22;;;;;;;;;;;;;;;13.88;73.04;98722.70;1481056;79;20129;-79
2022/07/10 04:32:22;;;;;;;;;;;;;;;13.91;72.99;98720.69;1483072;80;20405;-79
2022/07/10 04:34:23;;;;;;;;;;;;;;;13.95;73.02;98724.83;1513622;77;20082;-79
2022/07/10 04:36:24;;;;;;;;;;;;;;;14.01;73.00;98728.03;1480556;79;20115;-78
2022/07/10 04:38:25;;;;;;;;;;;;;;;14.04;72.99;98723.84;1481331;80;20067;-78
2022/07/10 04:40:26;;;;;;;;;;;;;;;14.06;72.99;98717.50;1481277;79;20107;-79
2022/07/10 04:42:27;;;;;;;;;;;;;;;14.09;72.96;98721.26;1481813;80;20107;-79
2022/07/10 04:44:27;;;;;;;;;;;;;;;14.13;72.98;98721.42;1478505;79;20119;-79
2022/07/10 04:46:28;;;;;;;;;;;;;;;14.18;72.93;98719.81;1480247;80;20085;-80
2022/07/10 04:48:29;;;;;;;;;;;;;;;14.21;72.87;98709.48;1481442;80;20139;-79
2022/07/10 04:50:30;;;;;;;;;;;;;;;14.24;72.86;98709.27;1482222;79;20223;-79
2022/07/10 04:52:31;;;;;;;;;;;;;;;14.24;72.77;98708.78;1480056;79;20606;-79
2022/07/10 04:54:32;;;;;;;;;;;;;;;14.23;72.80;98718.17;1482203;80;20153;-80
2022/07/10 04:56:33;;;;;;;;;;;;;;;14.21;72.77;98720.09;1482564;79;20134;-80
2022/07/10 04:58:34;;;;;;;;;;;;;;;14.19;72.79;98718.00;1480864;79;20165;-79
2022/07/10 05:00:35;;;;;;;;;;;;;;;14.14;72.86;98713.86;1480181;80;20130;-79
2022/07/10 05:02:36;;;;;;;;;;;;;;;14.13;72.82;98724.56;1481765;80;20110;-79
2022/07/10 05:04:36;;;;;;;;;;;;;;;14.11;72.83;98717.20;1479603;80;20139;-79
2022/07/10 05:06:37;;;;;;;;;;;;;;;14.09;72.85;98717.28;1479374;80;20108;-80
2022/07/10 05:08:39;;;;;;;;;;;;;;;14.07;72.89;98716.55;1478506;79;20196;-80
2022/07/10 05:10:40;;;;;;;;;;;;;;;14.05;72.88;98717.60;1480103;80;20162;-80
2022/07/10 05:12:40;;;;;;;;;;;;;;;14.03;72.96;98717.70;1478442;80;20149;-80
2022/07/10 05:14:41;;;;;;;;;;;;;;;14.01;72.96;98716.98;1479302;80;20561;-80
2022/07/10 05:16:42;;;;;;;;;;;;;;;14.00;73.01;98720.57;1466361;80;20132;-79
2022/07/10 05:18:43;;;;;;;;;;;;;;;13.99;73.06;98718.86;1478334;79;20186;-79
2022/07/10 05:20:44;;;;;;;;;;;;;;;13.98;73.09;98715.83;1484021;80;20090;-79
2022/07/10 05:22:45;;;;;;;;;;;;;;;13.99;73.14;98708.27;1480722;80;20114;-79
2022/07/10 05:24:46;;;;;;;;;;;;;;;14.01;73.21;98707.70;1482568;79;20165;-80
2022/07/10 05:26:48;;;;;;;;;;;;;;;14.07;73.32;98712.58;1481337;80;20117;-79
2022/07/10 05:28:49;;;;;;;;;;;;;;;14.14;73.36;98701.09;1485402;79;20184;-79
2022/07/10 05:30:50;;;;;;;;;;;;;;;14.23;73.38;98703.13;1481577;79;20121;-80
2022/07/10 05:32:50;;;;;;;;;;;;;;;14.26;73.47;98692.77;1482021;80;20441;-79
2022/07/10 05:34:51;;;;;;;;;;;;;;;14.43;73.39;98697.78;1481769;80;20129;-79
2022/07/10 05:36:53;;;;;;;;;;;;;;;14.53;73.33;98705.11;1480170;79;20125;-79
2022/07/10 05:38:53;;;;;;;;;;;;;;;14.63;73.32;98714.15;1481278;79;20161;-79
2022/07/10 05:40:54;;;;;;;;;;;;;;;14.77;73.34;98702.12;1482072;80;20130;-80
2022/07/10 05:42:55;;;;;;;;;;;;;;;14.91;73.11;98712.22;1480589;79;20171;-80
2022/07/10 05:44:56;;;;;;;;;;;;;;;15.01;73.01;98715.94;1479778;80;20094;-79
2022/07/10 05:46:56;;;;;;;;;;;;;;;15.06;72.65;98719.09;1480119;79;20281;-79
2022/07/10 05:48:57;;;;;;;;;;;;;;;15.08;72.54;98711.05;1480717;79;20130;-78
2022/07/10 05:50:58;;;;;;;;;;;;;;;15.09;72.50;98711.39;1481958;80;20500;-79
2022/07/10 05:52:59;;;;;;;;;;;;;;;15.10;72.36;98714.42;1480565;79;20114;-79
2022/07/10 05:55:00;;;;;;;;;;;;;;;15.09;72.23;98722.88;1481013;79;20549;-80
2022/07/10 05:57:00;;;;;;;;;;;;;;;15.08;72.22;98721.66;1479498;80;20165;-79
2022/07/10 05:59:01;;;;;;;;;;;;;;;15.06;72.17;98721.75;1481545;80;20153;-80
2022/07/10 06:01:02;;;;;;;;;;;;;;;15.03;71.99;98724.62;1482380;79;20133;-80
2022/07/10 06:03:05;;;;;;;;;;;;;;;14.89;72.02;98698.22;1481056;79;20141;-79
2022/07/10 06:05:06;;;;;;;;;;;;;;;15.02;72.08;98720.76;1480416;79;20142;-79
2022/07/10 06:07:07;;;;;;;;;;;;;;;15.09;72.19;98718.90;1479780;79;20161;-79
2022/07/10 06:09:10;;;;;;;;;;;;;;;15.14;72.14;98715.91;1480411;79;20153;-79
2022/07/10 06:11:13;;;;;;;;;;;;;;;15.15;72.00;98715.79;1483478;80;20139;-79
2022/07/10 06:13:14;;;;;;;;;;;;;;;15.15;72.00;98717.61;1482034;79;20213;-80
2022/07/10 06:15:15;;;;;;;;;;;;;;;15.19;71.99;98710.25;1480152;79;20133;-80
2022/07/10 06:17:16;;;;;;;;;;;;;;;15.20;71.98;98715.45;1481984;79;20173;-79
2022/07/10 06:19:18;;;;;;;;;;;;;;;15.23;71.99;98722.35;1481606;79;20145;-79
2022/07/10 06:21:21;;;;;;;;;;;;;;;15.30;72.07;98724.96;1482006;79;20278;-80
2022/07/10 06:23:21;;;;;;;;;;;;;;;15.40;72.17;98724.66;1480130;79;20260;-78
2022/07/10 06:25:22;;;;;;;;;;;;;;;15.50;72.06;98720.36;1466926;81;20124;-77
2022/07/10 06:27:23;;;;;;;;;;;;;;;15.59;71.71;98721.98;1479945;80;20296;-78
2022/07/10 06:29:24;;;;;;;;;;;;;;;15.63;71.48;98731.42;1479849;79;20173;-79
2022/07/10 06:31:24;;;;;;;;;;;;;;;15.60;71.27;98721.02;1480301;80;20828;-79
2022/07/10 06:33:27;;;;;;;;;;;;;;;15.56;70.82;98715.56;1478371;79;20125;-79
2022/07/10 06:35:28;;;;;;;;;;;;;;;15.48;70.81;98724.11;1480002;79;20518;-79
2022/07/10 06:37:31;;;;;;;;;;;;;;;15.42;70.64;98729.36;1482481;79;20941;-78
2022/07/10 06:39:35;;;;;;;;;;;;;;;15.37;70.78;98716.92;1478978;79;20154;-79
2022/07/10 06:41:36;;;;;;;;;;;;;;;15.40;70.85;98711.87;1479832;79;20178;-77
2022/07/10 06:43:37;;;;;;;;;;;;;;;15.48;70.93;98717.47;1481913;79;20174;-77
2022/07/10 06:45:39;;;;;;;;;;;;;;;15.57;71.01;98721.26;1467882;80;20467;-79
2022/07/10 06:48:01;;;;;;;;;;;;;;;15.65;70.79;98717.06;1481178;80;20870;-79
2022/07/10 06:49:43;;;;;;;;;;;;;;;15.73;70.35;98717.84;1468831;79;20114;-78
2022/07/10 06:51:44;;;;;;;;;;;;;;;15.78;70.05;98723.67;1482574;79;20126;-79
2022/07/10 06:53:45;;;;;;;;;;;;;;;15.82;70.16;98719.86;1479998;79;20129;-78
2022/07/10 06:55:46;;;;;;;;;;;;;;;15.89;69.74;98722.05;1477426;79;20557;-79
2022/07/10 06:57:47;;;;;;;;;;;;;;;15.97;70.05;98721.84;1480186;79;20139;-79
2022/07/10 06:59:48;;;;;;;;;;;;;;;16.06;69.89;98711.48;1479175;80;20484;-80
2022/07/10 07:01:49;;;;;;;;;;;;;;;16.15;69.84;98712.96;1477644;80;20276;-79
2022/07/10 07:03:50;;;;;;;;;;;;;;;16.29;69.80;98714.56;1480147;79;20214;-79
2022/07/10 07:05:50;;;;;;;;;;;;;;;16.41;69.45;98714.63;1481877;79;20150;-80
2022/07/10 07:07:51;;;;;;;;;;;;;;;16.49;69.36;98707.73;1481278;80;20161;-79
2022/07/10 07:09:52;;;;;;;;;;;;;;;16.62;69.43;98717.44;1481055;79;20180;-77
2022/07/10 07:11:53;;;;;;;;;;;;;;;16.69;69.15;98715.49;1493898;78;20152;-77
2022/07/10 07:13:53;;;;;;;;;;;;;;;16.68;68.06;98719.61;1480951;79;20181;-78
2022/07/10 07:16:00;;;;;;;;;;;;;;;16.60;68.41;98719.35;1483390;79;20153;-79
2022/07/10 07:18:07;;;;;;;;;;;;;;;16.55;68.51;98714.39;1477175;79;20161;-78
2022/07/10 07:24:39;;;;;;;;;;;;;;;16.68;67.19;98716.48;1478421;79;20125;-79
2022/07/10 07:26:40;;;;;;;;;;;;;;;16.73;67.63;98709.45;1508075;78;20199;-77
2022/07/10 07:28:41;;;;;;;;;;;;;;;16.77;67.70;98717.56;1480222;80;20161;-77
2022/07/10 07:30:42;;;;;;;;;;;;;;;16.83;67.30;98716.23;1509027;78;20137;-77
2022/07/10 07:32:44;;;;;;;;;;;;;;;16.90;67.56;98716.64;1508271;78;20175;-78
2022/07/10 07:34:45;;;;;;;;;;;;;;;17.00;67.46;98716.27;1511069;78;20128;-77
2022/07/10 07:36:46;;;;;;;;;;;;;;;17.08;66.99;98713.84;1508384;78;20215;-77
2022/07/10 07:38:46;;;;;;;;;;;;;;;17.15;66.89;98728.36;1479204;80;20168;-78
2022/07/10 07:40:47;;;;;;;;;;;;;;;17.23;66.65;98725.59;1488918;80;20165;-77
2022/07/10 07:42:49;;;;;;;;;;;;;;;17.31;66.49;98724.49;1507851;78;20189;-77
2022/07/10 07:44:50;;;;;;;;;;;;;;;17.35;66.30;98725.94;1508619;78;20129;-77
2022/07/10 07:46:50;;;;;;;;;;;;;;;17.41;66.19;98720.11;1477690;80;20132;-76
2022/07/10 07:48:51;;;;;;;;;;;;;;;17.41;66.06;98720.60;1468445;80;20187;-77
2022/07/10 07:50:52;;;;;;;;;;;;;;;17.36;66.20;98723.16;1479658;79;20177;-77
2022/07/10 07:52:53;;;;;;;;;;;;;;;17.29;66.16;98721.09;1509168;78;20161;-76
2022/07/10 07:54:53;;;;;;;;;;;;;;;17.27;66.06;98712.39;1506823;78;20149;-78
2022/07/10 07:56:54;;;;;;;;;;;;;;;17.25;66.07;98711.66;1476677;80;20141;-78
2022/07/10 07:58:56;;;;;;;;;;;;;;;17.28;66.42;98703.41;1507955;78;20191;-77
2022/07/10 08:01:01;;;;;;;;;;;;;;;17.38;66.25;98711.03;1507225;78;20145;-79
2022/07/10 08:03:02;;;;;;;;;;;;;;;17.46;65.80;98714.39;1505221;78;20129;-78
2022/07/10 08:05:06;;;;;;;;;;;;;;;17.51;65.85;98716.21;1478019;79;20122;-77
2022/07/10 08:07:07;;;;;;;;;;;;;;;17.52;65.50;98712.09;1506276;78;20204;-77
2022/07/10 08:09:08;;;;;;;;;;;;;;;17.51;65.69;98719.74;1477552;80;20168;-78
2022/07/10 08:11:09;;;;;;;;;;;;;;;17.51;65.83;98721.54;1478548;80;20163;-77
2022/07/10 08:13:10;;;;;;;;;;;;;;;17.52;65.90;98724.08;1507659;78;20168;-80
2022/07/10 08:15:12;;;;;;;;;;;;;;;17.59;65.68;98732.92;1478065;80;20445;-79
2022/07/10 08:17:13;;;;;;;;;;;;;;;17.60;64.59;98731.92;1508279;78;20141;-79
2022/07/10 08:19:14;;;;;;;;;;;;;;;17.60;64.93;98727.93;1478450;80;20460;-78
2022/07/10 08:21:15;;;;;;;;;;;;;;;17.65;63.45;98725.74;1490404;78;20301;-77
2022/07/10 08:23:16;;;;;;;;;;;;;;;17.73;64.02;98721.13;1471762;80;20211;-76
2022/07/10 08:25:17;;;;;;;;;;;;;;;17.76;63.02;98719.04;1483727;79;20136;-76
2022/07/10 08:27:18;;;;;;;;;;;;;;;17.76;63.21;98711.54;1485396;79;20149;-76
2022/07/10 08:29:19;;;;;;;;;;;;;;;17.81;62.91;98708.86;1483141;79;20516;-75
2022/07/10 08:31:20;;;;;;;;;;;;;;;17.86;61.28;98717.80;1483320;80;20618;-75
2022/07/10 08:33:21;;;;;;;;;;;;;;;17.89;63.03;98716.23;1482579;79;20117;-75
2022/07/10 08:35:21;;;;;;;;;;;;;;;18.01;62.53;98719.71;1485754;79;20189;-77
2022/07/10 08:37:22;;;;;;;;;;;;;;;18.07;62.88;98717.02;1484947;79;20452;-75
2022/07/10 08:39:23;;;;;;;;;;;;;;;18.10;62.33;98722.13;1480934;80;21158;-76
2022/07/10 08:41:27;;;;;;;;;;;;;;;18.01;61.70;98727.72;1484121;80;20291;-76
2022/07/10 08:43:28;;;;;;;;;;;;;;;17.94;62.47;98734.03;1486457;80;20485;-76
2022/07/10 08:45:31;;;;;;;;;;;;;;;17.86;62.12;98726.66;1485114;79;20149;-76
2022/07/10 08:47:33;;;;;;;;;;;;;;;17.77;61.99;98735.41;1482151;79;20157;-76
2022/07/10 08:49:35;;;;;;;;;;;;;;;17.75;62.32;98726.70;1485678;80;20224;-77
2022/07/10 08:51:37;;;;;;;;;;;;;;;17.78;62.56;98731.77;1485143;79;20130;-76
2022/07/10 08:53:39;;;;;;;;;;;;;;;17.83;61.92;98724.25;1483901;80;21612;-76
2022/07/10 08:55:42;;;;;;;;;;;;;;;17.76;61.38;98738.20;1484836;80;20143;-77
2022/07/10 08:57:43;;;;;;;;;;;;;;;17.69;61.85;98735.19;1485141;79;20137;-77
2022/07/10 08:59:43;;;;;;;;;;;;;;;17.72;62.19;98743.42;1483176;80;20480;-76
2022/07/10 09:01:44;;;;;;;;;;;;;;;17.75;62.08;98732.50;1487333;80;20139;-78
2022/07/10 09:03:45;;;;;;;;;;;;;;;17.86;62.24;98741.32;1486019;80;20177;-77
2022/07/10 09:05:46;;;;;;;;;;;;;;;17.95;61.46;98745.07;1471332;80;20181;-77
2022/07/10 09:07:47;;;;;;;;;;;;;;;17.86;60.87;98758.66;1482051;80;20121;-77
2022/07/10 09:09:52;;;;;;;;;;;;;;;17.73;59.99;98755.78;1485493;80;20206;-77
2022/07/10 09:12:00;;;;;;;;;;;;;;;17.60;60.54;98753.25;1484664;80;20137;-78
2022/07/10 09:14:07;;;;;;;;;;;;;;;17.53;60.94;98749.77;1435051;81;20138;-76
2022/07/10 09:16:05;;;;;;;;;;;;;;;17.50;61.22;98747.34;1444742;81;20179;-78
2022/07/10 09:18:07;;;;;;;;;;;;;;;17.52;60.91;98751.22;1483248;78;20121;-78
2022/07/10 09:20:11;;;;;;;;;;;;;;;17.60;61.16;98757.24;1484522;79;20141;-80
2022/07/10 09:22:12;;;;;;;;;;;;;;;17.64;60.04;98755.56;1477162;79;20157;-80
2022/07/10 09:24:13;;;;;;;;;;;;;;;17.64;60.84;98757.36;1507030;78;20181;-79
2022/07/10 09:26:14;;;;;;;;;;;;;;;17.65;59.92;98758.59;1479115;80;20471;-79
2022/07/10 09:28:16;;;;;;;;;;;;;;;17.63;60.51;98759.19;1479746;80;20249;-80
2022/07/10 09:30:19;;;;;;;;;;;;;;;17.60;60.44;98755.91;1479129;80;20122;-79
2022/07/10 09:32:20;;;;;;;;;;;;;;;17.59;60.34;98756.41;1477875;79;20153;-79
2022/07/10 09:34:22;;;;;;;;;;;;;;;17.57;59.99;98756.17;1507031;78;20466;-77
2022/07/10 09:36:23;;;;;;;;;;;;;;;17.59;60.65;98752.91;1473641;80;20606;-79
2022/07/10 09:38:25;;;;;;;;;;;;;;;17.71;60.77;98750.58;1508554;78;20213;-80
2022/07/10 09:40:27;;;;;;;;;;;;;;;17.87;60.67;98741.69;1475577;80;20275;-80
2022/07/10 09:42:29;;;;;;;;;;;;;;;17.99;59.81;98739.02;1437903;81;20294;-80
2022/07/10 09:44:29;;;;;;;;;;;;;;;18.11;59.68;98744.66;1480440;80;20126;-82
2022/07/10 09:46:32;;;;;;;;;;;;;;;18.19;59.86;98740.87;1505846;78;20303;-79
2022/07/10 09:48:33;;;;;;;;;;;;;;;18.22;59.54;98741.11;1507498;78;20177;-79
2022/07/10 09:50:34;;;;;;;;;;;;;;;18.15;58.89;98746.09;1482049;80;20173;-79
2022/07/10 09:52:36;;;;;;;;;;;;;;;18.10;59.08;98745.63;1480364;80;20154;-80
2022/07/10 09:54:37;;;;;;;;;;;;;;;18.06;58.86;98748.19;1478497;80;20137;-79
2022/07/10 09:56:51;;;;;;;;;;;;;;;18.04;57.90;98754.98;1479329;80;20173;-78
2022/07/10 09:58:53;;;;;;;;;;;;;;;17.96;58.03;98749.94;1480138;80;20129;-79
2022/07/10 10:00:55;;;;;;;;;;;;;;;18.16;58.40;98745.10;1508753;78;20126;-79
2022/07/10 10:02:57;;;;;;;;;;;;;;;18.34;57.57;98736.04;1478813;80;21037;-78
2022/07/10 10:05:00;;;;;;;;;;;;;;;18.51;56.77;98741.30;1481771;80;20125;-80
2022/07/10 10:07:03;;;;;;;;;;;;;;;18.53;56.89;98733.16;1511146;78;20125;-80
2022/07/10 10:09:06;;;;;;;;;;;;;;;18.42;55.97;98738.08;1478683;80;20142;-80
2022/07/10 10:11:08;;;;;;;;;;;;;;;18.35;56.48;98732.91;1509927;78;20213;-78
2022/07/10 10:13:11;;;;;;;;;;;;;;;18.36;56.66;98730.60;1510790;78;20156;-78
2022/07/10 10:15:12;;;;;;;;;;;;;;;18.57;55.89;98731.06;1479100;80;20516;-78
2022/07/10 10:17:13;;;;;;;;;;;;;;;18.74;56.13;98723.80;1511529;78;20136;-79
2022/07/10 10:21:34;;;;;;;;;;;;;;;18.91;55.98;98725.03;1481257;80;20141;-78
2022/07/10 10:23:35;;;;;;;;;;;;;;;18.85;55.07;98731.72;1508957;78;20148;-79
2022/07/10 10:25:37;;;;;;;;;;;;;;;18.73;55.02;98734.11;1480398;80;20130;-78
2022/07/10 10:27:39;;;;;;;;;;;;;;;18.65;54.88;98736.59;1481176;79;20102;-79
2022/07/10 10:29:41;;;;;;;;;;;;;;;18.54;55.33;98732.20;1481180;80;20140;-78
2022/07/10 10:31:42;;;;;;;;;;;;;;;18.48;55.64;98734.87;1479072;79;20113;-78
2022/07/10 10:33:45;;;;;;;;;;;;;;;18.35;55.59;98754.25;1481290;80;20126;-78
2022/07/10 10:35:49;;;;;;;;;;;;;;;18.16;55.19;98748.27;1479308;79;20161;-79
2022/07/10 10:37:51;;;;;;;;;;;;;;;18.04;55.56;98754.12;1477714;80;20488;-80
2022/07/10 10:39:57;;;;;;;;;;;;;;;17.96;56.47;98755.27;1475838;79;20179;-77
2022/07/10 10:41:55;;;;;;;;;;;;;;;17.94;55.81;98746.53;1509937;78;20480;-78